ADDS METAR Data INFO
IDs: Format: Raw Decoded Include TAF

Data at: 0901 UTC 20 Oct 2017

KPVF 200855Z AUTO 31017G26KT 3/4SM OVC002 09/09 A2987 RMK AO1 P0026
KPVF 200835Z AUTO 20013G25KT 1SM OVC003 10/10 A2984 RMK AO1 P0012
KPVF 200815Z AUTO 20012G21KT 4SM FEW005 OVC010 11/11 A2983 RMK AO1 P0004
KPVF 200755Z AUTO 19014G20KT 7SM OVC010 11/10 A2983 RMK AO1 P0003
KPVF 200735Z AUTO 19014G23KT 10SM OVC010 12/09 A2983 RMK AO1
KPVF 200715Z AUTO 18011G21KT 10SM OVC008 12/09 A2985 RMK AO1
KPVF 200655Z AUTO 18014G19KT 10SM OVC008 12/09 A2986 RMK AO1
KPVF 200635Z AUTO 17013G17KT 10SM OVC008 12/09 A2987 RMK AO1
KPVF 200615Z AUTO 18011G16KT 10SM OVC008 12/09 A2989 RMK AO1
KPVF 200555Z AUTO 18008KT 10SM OVC008 12/09 A2990 RMK AO1
KPVF 200535Z AUTO 18009KT 10SM OVC006 12/09 A2991 RMK AO1
KPVF 200515Z AUTO 18009KT 10SM OVC006 11/09 A2991 RMK AO1
KPVF 200455Z AUTO 18006KT 10SM OVC005 11/09 A2992 RMK AO1
KPVF 200435Z AUTO 17005KT 10SM OVC005 11/10 A2991 RMK AO1
KPVF 200415Z AUTO 19005KT 10SM OVC008 12/09 A2992 RMK AO1
KPVF 200355Z AUTO 21006KT 10SM OVC008 12/09 A2993 RMK AO1
KPVF 200335Z AUTO 19005KT 10SM OVC008 12/09 A2992 RMK AO1
KPVF 200315Z AUTO 20004KT 10SM OVC008 12/09 A2993 RMK AO1
KPVF 200255Z AUTO 18007KT 10SM OVC008 12/09 A2993 RMK AO1
KPVF 200235Z AUTO 21006KT 10SM OVC008 12/09 A2994 RMK AO1
KPVF 200215Z AUTO 21007KT 10SM OVC010 12/09 A2993 RMK AO1
KPVF 200155Z AUTO 23006KT 10SM BKN010 OVC020 12/10 A2992 RMK AO1
KPVF 200135Z AUTO 21006KT 10SM FEW012 OVC020 13/10 A2991 RMK AO1
KPVF 200115Z AUTO 22007KT 10SM OVC016 13/10 A2991 RMK AO1
KPVF 200055Z AUTO 22008KT 10SM OVC014 14/10 A2992 RMK AO1
KPVF 200035Z AUTO 21007KT 180V240 10SM SCT016 BKN060 14/10 A2992 RMK AO1
KPVF 200015Z AUTO 21010G15KT 10SM FEW048 SCT060 15/09 A2991 RMK AO1
KPVF 192355Z AUTO 23007G14KT 10SM BKN050 BKN055 17/09 A2992 RMK AO1
KPVF 192335Z AUTO 21009KT 10SM FEW060 17/08 A2992 RMK AO1
KPVF 192315Z AUTO 22008G15KT 190V260 10SM CLR 18/07 A2993 RMK AO1
KPVF 192255Z AUTO 21008KT 190V250 10SM FEW050 19/07 A2993 RMK AO1
KPVF 192235Z AUTO 22007KT 10SM BKN050 20/07 A2994 RMK AO1
KPVF 192215Z AUTO 17008G15KT 10SM BKN050 BKN070 20/05 A2994 RMK AO1
KPVF 192155Z AUTO 16011KT 10SM SCT050 BKN070 21/04 A2994 RMK AO1
KPVF 192135Z AUTO 20007KT 10SM BKN050 OVC070 20/04 A2995 RMK AO1
KPVF 192115Z AUTO 18007KT 10SM SCT050 OVC070 19/02 A2996 RMK AO1
KPVF 192055Z AUTO 21007KT 10SM BKN050 BKN070 19/03 A2997 RMK AO1
KPVF 192035Z AUTO 21006KT 10SM OVC050 19/03 A2998 RMK AO1
KPVF 192015Z AUTO 23007KT 10SM BKN050 OVC070 19/02 A2999 RMK AO1
KPVF 191955Z AUTO 20004KT 10SM BKN050 BKN070 19/02 A2999 RMK AO1
KPVF 191935Z AUTO 22007KT 10SM BKN050 OVC070 18/01 A3001 RMK AO1
KPVF 191915Z AUTO 23005KT 10SM BKN050 OVC060 17/00 A3001 RMK AO1
KPVF 191855Z AUTO 20005KT 10SM BKN060 BKN070 17/01 A3001 RMK AO1
KPVF 191835Z AUTO 21005KT 10SM BKN070 18/00 A3001 RMK AO1
KPVF 191815Z AUTO 22005KT 10SM OVC060 18/00 A3001 RMK AO1
KPVF 191755Z AUTO 22006KT 10SM OVC060 19/M02 A3001 RMK AO1
KPVF 191735Z AUTO 19006KT 10SM OVC060 19/M02 A3001 RMK AO1
KPVF 191715Z AUTO 18005KT 10SM OVC060 19/M03 A3000 RMK AO1
KPVF 191655Z AUTO 20004KT 10SM OVC060 17/M02 A3000 RMK AO1
KPVF 191635Z AUTO 17005KT 10SM OVC060 17/M04 A3000 RMK AO1
KPVF 191615Z AUTO 15006KT 10SM OVC060 17/M04 A3000 RMK AO1
KPVF 191555Z AUTO 15007KT 10SM BKN060 17/M04 A3000 RMK AO1
KPVF 191535Z AUTO 13008KT 10SM CLR 15/14 A2999 RMK AO1
KPVF 191515Z AUTO 13008KT 10SM CLR 14/09 A2999 RMK AO1
KPVF 191455Z AUTO 13007KT 10SM CLR 14/M03 A2999 RMK AO1
KPVF 191435Z AUTO 11009KT 10SM CLR 12/M03 A2999 RMK AO1
KPVF 191415Z AUTO 10005KT 10SM CLR 13/M02 A2999 RMK AO1
KPVF 191355Z AUTO 11006KT 10SM CLR 13/M02 A3000 RMK AO1
KPVF 191335Z AUTO 11006KT 10SM CLR 12/M02 A2999 RMK AO1
KPVF 191315Z AUTO 11004KT 10SM CLR 12/M02 A3000 RMK AO1
KPVF 191255Z AUTO 11006KT 10SM CLR 12/M01 A3000 RMK AO1
KPVF 191235Z AUTO 10005KT 10SM CLR 13/M01 A3000 RMK AO1
KPVF 191215Z AUTO 16003KT 10SM CLR 12/M01 A3000 RMK AO1
KPVF 191155Z AUTO 23005KT 10SM CLR 13/M01 A3000 RMK AO1
KPVF 191135Z AUTO 24004KT 10SM SCT045 13/M02 A3000 RMK AO1
KPVF 191115Z AUTO 13006KT 10SM OVC047 14/M02 A2999 RMK AO1
KPVF 191055Z AUTO 13006KT 10SM OVC047 15/M02 A2999 RMK AO1
KPVF 191035Z AUTO 13008KT 10SM BKN047 OVC070 15/M02 A3000 RMK AO1
KPVF 191015Z AUTO 12008KT 10SM SCT027 BKN047 OVC070 15/M02 A3000 RMK AO1
KPVF 190955Z AUTO 13008KT 10SM BKN027 OVC043 14/M01 A3001 RMK AO1
KPVF 190935Z AUTO 13008KT 10SM BKN027 OVC043 15/00 A3001 RMK AO1
KPVF 190915Z AUTO 13008KT 10SM BKN027 BKN034 OVC042 15/00 A3002 RMK AO1
KPVF 190855Z AUTO 13007KT 10SM FEW023 OVC030 14/00 A3002 RMK AO1
KPVF 190835Z AUTO 14006KT 10SM OVC032 14/00 A3002 RMK AO1
KPVF 190815Z AUTO 13006KT 10SM OVC036 14/00 A3002 RMK AO1
KPVF 190755Z AUTO 13007KT 10SM OVC036 14/00 A3003 RMK AO1
KPVF 190735Z AUTO 13007KT 10SM FEW020 BKN036 14/00 A3003 RMK AO1
KPVF 190715Z AUTO 11006KT 10SM FEW022 FEW035 SCT043 15/00 A3003 RMK AO1
KPVF 190655Z AUTO 13005KT 10SM FEW022 FEW039 15/00 A3003 RMK AO1
KPVF 190635Z AUTO 12006KT 10SM CLR 14/00 A3003 RMK AO1
KPVF 190615Z AUTO 12007KT 10SM CLR 14/00 A3003 RMK AO1
KPVF 190555Z AUTO 11007KT 10SM CLR 14/00 A3002 RMK AO1
KPVF 190535Z AUTO 11007KT 10SM CLR 15/00 A3003 RMK AO1
KPVF 190515Z AUTO 10006KT 10SM CLR 15/00 A3003 RMK AO1
KPVF 190455Z AUTO 10006KT 10SM CLR 14/00 A3003 RMK AO1
KPVF 190435Z AUTO 10006KT 10SM CLR 14/00 A3003 RMK AO1
KPVF 190415Z AUTO 12006KT 10SM CLR 16/00 A3003 RMK AO1
KPVF 190355Z AUTO 11006KT 10SM CLR 16/00 A3004 RMK AO1
KPVF 190335Z AUTO 11004KT 10SM SCT026 17/00 A3004 RMK AO1
KPVF 190315Z AUTO 11004KT 10SM FEW026 17/00 A3005 RMK AO1
KPVF 190255Z AUTO 12003KT 10SM FEW025 FEW033 17/00 A3005 RMK AO1
KPVF 190235Z AUTO 00000KT 10SM FEW024 BKN033 18/00 A3005 RMK AO1
KPVF 190215Z AUTO 00000KT 10SM FEW031 19/M02 A3005 RMK AO1
KPVF 190155Z AUTO 26003KT 10SM CLR 19/M03 A3004 RMK AO1
KPVF 190135Z AUTO 28004KT 10SM CLR 20/M01 A3004 RMK AO1
KPVF 190115Z AUTO 29004KT 10SM CLR 20/M03 A3004 RMK AO1
KPVF 190055Z AUTO 28005KT 10SM CLR 21/M03 A3004 RMK AO1
KPVF 190035Z AUTO 29003KT 10SM CLR 22/M03 A3004 RMK AO1
KPVF 190015Z AUTO 25004KT 10SM CLR 23/M04 A3004 RMK AO1
KPVF 182355Z AUTO 23006KT 10SM CLR 23/M04 A3004 RMK AO1
KPVF 182335Z AUTO 23004KT 10SM CLR 24/M04 A3005 RMK AO1
KPVF 182315Z AUTO 24005KT 10SM CLR 24/M05 A3005 RMK AO1
KPVF 182255Z AUTO 24005KT 10SM CLR 24/M05 A3005 RMK AO1
KPVF 182235Z AUTO 24006KT 10SM CLR 25/M05 A3006 RMK AO1
KPVF 182215Z AUTO 21005KT 10SM CLR 25/M05 A3006 RMK AO1
KPVF 182155Z AUTO 22004KT 10SM CLR 25/M05 A3006 RMK AO1
KPVF 182135Z AUTO 23007KT 10SM CLR 25/M05 A3007 RMK AO1
KPVF 182115Z AUTO 22006KT 10SM CLR 25/M05 A3007 RMK AO1